Time;durP1;ratioP1;P1;durP2;ratioP2;P2;SDS_P1;SDS_P2;PMS_P1;PMS_P2;Temp;Humidity;BMP_temperature;BMP_pressure;BME280_temperature;BME280_humidity;BME280_pressure;Samples;Min_cycle;Max_cycle;Signal;HPM_P1;HPM_P2
2023/02/23 00:00:21;;;;;;;100.03;59.23;;;;;;;;;;5058543;28;20032;-76
2023/02/23 00:02:48;;;;;;;94.53;58.93;;;;;;;;;;5054062;28;20030;-76
2023/02/23 00:05:14;;;;;;;103.20;60.87;;;;;;;;;;5058263;28;20028;-76
2023/02/23 00:07:44;;;;;;;103.40;60.67;;;;;;;;;;5059413;28;20036;-75
2023/02/23 00:10:11;;;;;;;100.43;60.17;;;;;;;;;;5058010;28;20040;-76
2023/02/23 00:12:37;;;;;;;104.63;63.03;;;;;;;;;;5058964;28;20404;-76
2023/02/23 00:15:04;;;;;;;95.13;58.00;;;;;;;;;;5058832;28;20112;-76
2023/02/23 00:17:32;;;;;;;94.70;58.27;;;;;;;;;;5040806;28;20057;-76
2023/02/23 00:19:58;;;;;;;92.67;60.93;;;;;;;;;;5057791;28;20032;-75
2023/02/23 00:22:25;;;;;;;94.07;56.17;;;;;;;;;;5046375;28;20040;-76
2023/02/23 00:24:51;;;;;;;98.83;61.80;;;;;;;;;;5058521;28;20029;-75
2023/02/23 00:27:19;;;;;;;105.20;62.67;;;;;;;;;;5059249;28;20037;-76
2023/02/23 00:29:48;;;;;;;107.53;64.77;;;;;;;;;;5057221;28;20445;-75
2023/02/23 00:32:18;;;;;;;102.73;61.53;;;;;;;;;;5039664;28;20029;-76
2023/02/23 00:34:48;;;;;;;106.87;61.17;;;;;;;;;;5059188;28;21042;-75
2023/02/23 00:37:14;;;;;;;105.87;62.53;;;;;;;;;;5040494;28;20033;-76
2023/02/23 00:39:40;;;;;;;108.93;63.60;;;;;;;;;;5058979;28;20029;-76
2023/02/23 00:42:06;;;;;;;116.70;66.23;;;;;;;;;;5056735;28;20052;-76
2023/02/23 00:44:33;;;;;;;120.53;67.30;;;;;;;;;;5040066;28;20037;-76
2023/02/23 00:47:01;;;;;;;114.80;65.13;;;;;;;;;;5056598;28;20073;-76
2023/02/23 00:49:27;;;;;;;110.97;64.33;;;;;;;;;;5038958;28;20037;-76
2023/02/23 00:51:53;;;;;;;107.97;63.73;;;;;;;;;;5046476;28;20883;-76
2023/02/23 00:54:20;;;;;;;119.10;67.30;;;;;;;;;;5055888;28;20043;-76
2023/02/23 00:56:47;;;;;;;110.17;66.33;;;;;;;;;;5058223;28;20029;-76
2023/02/23 00:59:13;;;;;;;110.93;62.70;;;;;;;;;;5057803;28;20726;-76
2023/02/23 01:01:43;;;;;;;108.30;63.47;;;;;;;;;;5059116;28;20681;-76
2023/02/23 01:04:10;;;;;;;112.53;64.67;;;;;;;;;;5047921;28;20036;-75
2023/02/23 01:06:36;;;;;;;108.87;63.73;;;;;;;;;;5043299;28;20093;-75
2023/02/23 01:09:06;;;;;;;109.83;64.47;;;;;;;;;;5058710;28;20115;-76
2023/02/23 01:11:32;;;;;;;111.80;67.53;;;;;;;;;;5056861;28;20035;-76
2023/02/23 01:13:59;;;;;;;101.97;62.73;;;;;;;;;;5043179;28;20028;-76
2023/02/23 01:16:26;;;;;;;111.73;63.73;;;;;;;;;;5057933;28;20029;-76
2023/02/23 01:18:53;;;;;;;114.93;66.70;;;;;;;;;;5046760;28;20365;-75
2023/02/23 01:21:19;;;;;;;125.60;68.53;;;;;;;;;;5038092;28;20032;-75
2023/02/23 01:23:45;;;;;;;126.97;71.30;;;;;;;;;;5056463;28;20032;-76
2023/02/23 01:26:15;;;;;;;124.93;69.67;;;;;;;;;;5054254;28;20122;-75
2023/02/23 01:28:41;;;;;;;131.23;70.00;;;;;;;;;;5038530;28;20691;-76
2023/02/23 01:31:10;;;;;;;126.23;68.93;;;;;;;;;;5056016;28;20029;-76
2023/02/23 01:33:36;;;;;;;123.87;71.73;;;;;;;;;;5054506;28;20104;-76
2023/02/23 01:36:02;;;;;;;131.27;69.40;;;;;;;;;;5053928;28;20100;-75
2023/02/23 01:38:28;;;;;;;126.43;70.33;;;;;;;;;;5038536;28;20036;-76
2023/02/23 01:40:54;;;;;;;125.50;71.13;;;;;;;;;;5054925;28;20032;-75
2023/02/23 01:43:24;;;;;;;125.03;69.07;;;;;;;;;;5046491;28;20055;-75
2023/02/23 01:45:53;;;;;;;124.97;71.50;;;;;;;;;;5038283;28;20123;-74
2023/02/23 01:48:21;;;;;;;136.63;72.80;;;;;;;;;;5042425;28;20029;-76
2023/02/23 01:51:06;;;;;;;144.93;75.70;;;;;;;;;;5055808;28;20500;-75
2023/02/23 01:53:33;;;;;;;157.63;77.63;;;;;;;;;;5055243;28;20025;-76
2023/02/23 01:56:12;;;;;;;160.70;83.80;;;;;;;;;;5054334;28;20035;-75
2023/02/23 01:58:39;;;;;;;162.03;84.00;;;;;;;;;;5054708;28;20035;-75
2023/02/23 02:01:08;;;;;;;171.07;84.23;;;;;;;;;;5037169;28;20025;-74
2023/02/23 02:03:36;;;;;;;174.67;84.37;;;;;;;;;;5037420;28;20390;-75
2023/02/23 02:06:03;;;;;;;175.47;82.97;;;;;;;;;;5053874;28;20073;-75
2023/02/23 02:08:30;;;;;;;177.83;84.03;;;;;;;;;;5054438;28;20036;-75
2023/02/23 02:10:59;;;;;;;177.20;86.67;;;;;;;;;;5054112;28;20107;-75
2023/02/23 02:13:26;;;;;;;165.40;82.63;;;;;;;;;;5053668;28;20024;-75
2023/02/23 02:16:13;;;;;;;177.77;83.57;;;;;;;;;;5055428;28;20045;-75
2023/02/23 02:18:40;;;;;;;172.67;84.90;;;;;;;;;;5041372;28;20037;-75
2023/02/23 02:21:10;;;;;;;173.73;85.57;;;;;;;;;;5037990;28;20523;-75
2023/02/23 02:23:55;;;;;;;167.27;83.50;;;;;;;;;;5036280;28;20028;-75
2023/02/23 02:26:42;;;;;;;174.40;85.83;;;;;;;;;;5053675;28;20033;-75
2023/02/23 02:29:14;;;;;;;177.00;83.70;;;;;;;;;;5047107;28;20127;-75
2023/02/23 02:32:01;;;;;;;165.43;83.60;;;;;;;;;;5046508;28;20029;-75
2023/02/23 02:34:27;;;;;;;170.37;80.90;;;;;;;;;;5011533;28;20123;-75
2023/02/23 02:36:53;;;;;;;169.23;81.73;;;;;;;;;;5054599;28;20164;-75
2023/02/23 02:39:22;;;;;;;173.83;85.37;;;;;;;;;;5053510;28;20047;-74
2023/02/23 02:42:07;;;;;;;158.87;82.80;;;;;;;;;;5054212;28;20063;-75
2023/02/23 02:44:41;;;;;;;167.73;82.17;;;;;;;;;;5052929;28;20041;-74
2023/02/23 02:47:11;;;;;;;175.70;83.57;;;;;;;;;;5055800;28;20025;-75
2023/02/23 02:49:54;;;;;;;148.37;77.63;;;;;;;;;;5056031;28;20188;-75
2023/02/23 02:52:20;;;;;;;143.77;73.73;;;;;;;;;;5069155;28;20021;-75
2023/02/23 02:54:52;;;;;;;163.07;77.87;;;;;;;;;;5073875;28;20021;-75
2023/02/23 02:57:21;;;;;;;168.70;82.38;;;;;;;;;;5059168;28;20021;-75
2023/02/23 04:18:17;;;;;;;224.67;102.93;;;;;;;;;;5065246;28;20118;-74
2023/02/23 04:20:43;;;;;;;219.40;101.13;;;;;;;;;;5042825;28;20879;-74
2023/02/23 04:23:09;;;;;;;212.67;102.30;;;;;;;;;;5054108;28;20033;-75
2023/02/23 04:25:35;;;;;;;220.10;104.00;;;;;;;;;;5037436;28;20062;-75
2023/02/23 04:28:02;;;;;;;208.80;100.87;;;;;;;;;;5055441;28;20036;-74
2023/02/23 04:30:29;;;;;;;211.23;101.63;;;;;;;;;;5053629;28;20648;-75
2023/02/23 04:32:55;;;;;;;225.03;102.03;;;;;;;;;;5046914;28;20152;-74
2023/02/23 04:35:21;;;;;;;207.80;100.43;;;;;;;;;;5040234;28;20037;-75
2023/02/23 04:37:47;;;;;;;200.80;96.77;;;;;;;;;;5037430;28;20036;-75
2023/02/23 04:40:13;;;;;;;199.83;98.10;;;;;;;;;;5055690;28;20037;-74
2023/02/23 04:42:40;;;;;;;208.23;97.13;;;;;;;;;;5038703;28;20384;-74
2023/02/23 04:45:09;;;;;;;205.33;99.57;;;;;;;;;;5056877;28;20520;-74
2023/02/23 04:47:35;;;;;;;213.90;102.90;;;;;;;;;;5053499;28;20029;-74
2023/02/23 04:50:03;;;;;;;209.80;99.73;;;;;;;;;;5053674;28;20037;-75
2023/02/23 04:52:30;;;;;;;233.00;103.47;;;;;;;;;;5055060;28;20029;-74
2023/02/23 04:54:56;;;;;;;228.50;102.77;;;;;;;;;;5054440;28;20028;-74
2023/02/23 04:57:22;;;;;;;224.57;103.67;;;;;;;;;;5054953;28;20032;-74
2023/02/23 04:59:48;;;;;;;229.30;103.10;;;;;;;;;;5046559;28;20131;-74
2023/02/23 05:02:14;;;;;;;221.73;102.70;;;;;;;;;;5054610;28;20032;-74
2023/02/23 05:04:40;;;;;;;228.67;105.83;;;;;;;;;;5038055;28;21139;-74
2023/02/23 05:07:06;;;;;;;235.90;104.17;;;;;;;;;;5036557;28;20028;-74
2023/02/23 05:09:34;;;;;;;244.50;107.20;;;;;;;;;;5054839;28;20116;-74
2023/02/23 05:12:00;;;;;;;235.20;107.33;;;;;;;;;;5052922;28;20437;-74
2023/02/23 05:14:26;;;;;;;226.67;102.83;;;;;;;;;;5055007;28;20353;-74
2023/02/23 05:16:52;;;;;;;249.00;106.23;;;;;;;;;;5035351;28;20115;-75
2023/02/23 05:19:18;;;;;;;253.90;106.67;;;;;;;;;;5055112;28;20116;-75
2023/02/23 05:21:44;;;;;;;246.83;106.97;;;;;;;;;;5052811;28;20041;-74
2023/02/23 05:24:10;;;;;;;269.40;111.77;;;;;;;;;;5054376;28;20033;-74
2023/02/23 05:26:36;;;;;;;256.13;109.60;;;;;;;;;;5045174;28;20035;-74
2023/02/23 05:29:02;;;;;;;261.93;110.40;;;;;;;;;;5058449;28;20152;-75
2023/02/23 05:31:28;;;;;;;246.37;107.03;;;;;;;;;;5037720;28;20032;-75
2023/02/23 05:33:54;;;;;;;254.73;110.00;;;;;;;;;;5055950;28;20033;-74
2023/02/23 05:36:23;;;;;;;234.97;108.37;;;;;;;;;;5041975;28;20029;-74
2023/02/23 05:38:52;;;;;;;253.47;108.30;;;;;;;;;;5055610;28;20036;-75
2023/02/23 05:41:22;;;;;;;265.37;109.80;;;;;;;;;;5054097;28;20032;-75
2023/02/23 05:43:51;;;;;;;267.23;111.00;;;;;;;;;;5051980;28;20041;-74
2023/02/23 05:46:19;;;;;;;266.97;113.80;;;;;;;;;;5037779;28;20147;-75
2023/02/23 05:48:45;;;;;;;259.77;108.53;;;;;;;;;;5053696;28;20147;-75
2023/02/23 05:51:12;;;;;;;245.57;108.80;;;;;;;;;;5035866;28;20411;-74
2023/02/23 05:53:41;;;;;;;241.70;107.07;;;;;;;;;;5044596;28;20025;-75
2023/02/23 05:56:08;;;;;;;252.13;107.93;;;;;;;;;;5053556;28;20107;-74
2023/02/23 05:58:34;;;;;;;254.83;108.30;;;;;;;;;;5052440;28;20395;-74
2023/02/23 06:01:00;;;;;;;243.70;105.37;;;;;;;;;;5053942;28;20037;-74
2023/02/23 06:03:26;;;;;;;248.03;106.93;;;;;;;;;;5053995;28;20028;-75
2023/02/23 06:05:53;;;;;;;239.07;106.03;;;;;;;;;;5039483;28;20036;-74
2023/02/23 06:08:20;;;;;;;233.30;107.00;;;;;;;;;;5038310;28;20440;-74
2023/02/23 06:10:46;;;;;;;232.20;107.37;;;;;;;;;;5052022;28;20036;-73
2023/02/23 06:13:15;;;;;;;242.03;104.53;;;;;;;;;;5035885;28;20029;-75
2023/02/23 06:15:41;;;;;;;233.47;101.27;;;;;;;;;;5042004;28;20029;-75
2023/02/23 06:18:07;;;;;;;230.27;101.30;;;;;;;;;;5053036;28;20039;-75
2023/02/23 06:20:34;;;;;;;223.70;99.47;;;;;;;;;;5053667;28;20037;-74
2023/02/23 06:23:00;;;;;;;235.13;101.27;;;;;;;;;;5051874;28;20415;-74
2023/02/23 06:25:26;;;;;;;235.70;103.20;;;;;;;;;;5055139;28;20040;-76
2023/02/23 06:27:53;;;;;;;218.93;99.30;;;;;;;;;;5055059;28;20040;-74
2023/02/23 06:30:19;;;;;;;229.17;101.83;;;;;;;;;;5056340;28;20056;-73
2023/02/23 06:32:45;;;;;;;211.27;96.87;;;;;;;;;;5044983;28;20476;-75
2023/02/23 06:35:11;;;;;;;215.90;96.30;;;;;;;;;;5055622;28;20060;-75
2023/02/23 06:37:37;;;;;;;203.43;94.93;;;;;;;;;;5036965;28;20036;-74
2023/02/23 06:40:04;;;;;;;199.17;97.40;;;;;;;;;;5056065;28;20095;-75
2023/02/23 06:42:30;;;;;;;206.80;97.07;;;;;;;;;;5054678;28;20032;-74
2023/02/23 06:44:56;;;;;;;197.37;93.13;;;;;;;;;;5054231;28;20032;-74
2023/02/23 06:47:22;;;;;;;219.20;98.43;;;;;;;;;;5054959;28;21804;-74
2023/02/23 06:49:48;;;;;;;209.27;98.77;;;;;;;;;;5039911;28;20044;-74
2023/02/23 06:52:14;;;;;;;216.67;97.13;;;;;;;;;;5037237;28;20036;-74
2023/02/23 06:54:40;;;;;;;191.73;93.50;;;;;;;;;;5044030;28;20072;-74
2023/02/23 06:57:09;;;;;;;199.67;95.03;;;;;;;;;;5037999;28;20615;-74
2023/02/23 06:59:35;;;;;;;205.73;97.10;;;;;;;;;;5054320;28;20033;-75
2023/02/23 07:02:03;;;;;;;192.87;94.00;;;;;;;;;;5054818;28;20033;-74
2023/02/23 07:04:29;;;;;;;188.40;93.77;;;;;;;;;;5046048;28;20032;-74
2023/02/23 07:06:55;;;;;;;179.23;89.87;;;;;;;;;;5039219;28;20044;-73
2023/02/23 07:09:21;;;;;;;176.07;89.27;;;;;;;;;;5056096;28;20029;-73
2023/02/23 07:11:47;;;;;;;183.43;89.10;;;;;;;;;;5055133;28;20043;-74
2023/02/23 07:14:16;;;;;;;179.40;89.43;;;;;;;;;;5043519;28;20040;-74
2023/02/23 07:16:42;;;;;;;178.50;89.43;;;;;;;;;;5059276;28;20036;-74
2023/02/23 07:19:08;;;;;;;167.63;86.53;;;;;;;;;;5050158;28;20043;-74
2023/02/23 07:21:34;;;;;;;170.10;86.87;;;;;;;;;;5061012;28;20032;-74
2023/02/23 07:24:02;;;;;;;165.27;83.90;;;;;;;;;;5043090;28;20104;-74
2023/02/23 07:26:28;;;;;;;151.63;79.60;;;;;;;;;;5059063;28;20056;-74
2023/02/23 07:28:54;;;;;;;158.30;81.70;;;;;;;;;;5055863;28;20893;-74
2023/02/23 07:31:20;;;;;;;141.33;73.80;;;;;;;;;;5046935;28;20025;-74
2023/02/23 07:33:46;;;;;;;140.67;73.17;;;;;;;;;;5042788;28;20037;-74
2023/02/23 07:36:12;;;;;;;137.23;75.10;;;;;;;;;;5058410;28;20036;-74
2023/02/23 07:38:38;;;;;;;134.90;72.00;;;;;;;;;;5058239;28;20066;-74
2023/02/23 07:41:04;;;;;;;145.70;75.80;;;;;;;;;;5059419;28;20496;-74
2023/02/23 07:43:30;;;;;;;132.90;70.87;;;;;;;;;;5042786;28;20036;-74
2023/02/23 07:46:00;;;;;;;130.57;69.93;;;;;;;;;;5050555;28;20032;-74
2023/02/23 07:48:26;;;;;;;134.17;72.17;;;;;;;;;;5060199;28;20024;-74
2023/02/23 07:50:52;;;;;;;133.63;71.50;;;;;;;;;;5056366;28;20041;-74
2023/02/23 07:53:20;;;;;;;143.20;75.40;;;;;;;;;;5048346;28;20116;-74
2023/02/23 07:55:46;;;;;;;135.93;70.10;;;;;;;;;;5041474;28;20756;-74
2023/02/23 07:58:12;;;;;;;131.30;72.30;;;;;;;;;;5042184;28;20049;-74
2023/02/23 08:00:39;;;;;;;132.77;69.93;;;;;;;;;;5042140;28;20078;-74
2023/02/23 08:03:05;;;;;;;126.37;68.77;;;;;;;;;;5045624;28;20062;-74
2023/02/23 08:05:31;;;;;;;131.53;67.03;;;;;;;;;;5057498;28;20040;-74
2023/02/23 08:07:58;;;;;;;130.67;66.77;;;;;;;;;;5052864;28;20089;-74
2023/02/23 08:10:25;;;;;;;125.87;67.27;;;;;;;;;;5057888;28;20044;-74
2023/02/23 08:12:51;;;;;;;126.83;63.73;;;;;;;;;;5039434;28;20445;-74
2023/02/23 08:15:17;;;;;;;131.77;64.40;;;;;;;;;;5044315;28;20041;-74
2023/02/23 08:17:43;;;;;;;130.30;63.97;;;;;;;;;;5048442;28;20041;-74
2023/02/23 08:20:09;;;;;;;133.73;67.57;;;;;;;;;;5059479;28;20033;-75
2023/02/23 08:22:35;;;;;;;133.80;69.50;;;;;;;;;;5057515;28;20132;-74
2023/02/23 08:25:04;;;;;;;137.77;68.07;;;;;;;;;;5056439;28;20061;-74
2023/02/23 08:27:30;;;;;;;132.60;68.07;;;;;;;;;;5041543;28;20033;-74
2023/02/23 08:29:56;;;;;;;136.10;67.27;;;;;;;;;;5049568;28;21715;-74
2023/02/23 08:32:22;;;;;;;142.40;70.10;;;;;;;;;;5056277;28;20361;-74
2023/02/23 08:34:51;;;;;;;150.60;72.50;;;;;;;;;;5043604;28;20115;-74
2023/02/23 08:37:17;;;;;;;159.23;74.67;;;;;;;;;;5058062;28;20025;-74
2023/02/23 08:39:45;;;;;;;157.30;74.97;;;;;;;;;;5058406;28;20029;-74
2023/02/23 08:42:11;;;;;;;144.23;74.20;;;;;;;;;;5043380;28;20053;-74
2023/02/23 08:44:37;;;;;;;153.30;75.17;;;;;;;;;;5050346;28;20075;-75
2023/02/23 08:47:03;;;;;;;158.13;75.17;;;;;;;;;;5072464;28;20025;-74
2023/02/23 08:49:31;;;;;;;154.33;73.10;;;;;;;;;;5082738;28;20035;-74
2023/02/23 08:51:57;;;;;;;149.43;73.30;;;;;;;;;;5054338;28;20056;-74
2023/02/23 08:54:23;;;;;;;148.47;74.37;;;;;;;;;;5057320;28;20016;-74
2023/02/23 08:56:49;;;;;;;148.13;75.10;;;;;;;;;;5056360;28;20039;-74
2023/02/23 08:59:15;;;;;;;148.90;74.00;;;;;;;;;;5049006;28;20461;-74
2023/02/23 09:01:41;;;;;;;166.97;79.03;;;;;;;;;;5076553;28;20020;-74
2023/02/23 09:04:08;;;;;;;150.10;70.77;;;;;;;;;;5062795;28;20029;-75
2023/02/23 09:06:34;;;;;;;145.07;73.27;;;;;;;;;;5075668;28;20033;-74
2023/02/23 09:09:02;;;;;;;156.07;76.70;;;;;;;;;;5058664;28;20036;-74
2023/02/23 09:11:28;;;;;;;150.83;75.10;;;;;;;;;;5051206;28;20479;-74
2023/02/23 09:13:54;;;;;;;143.07;73.50;;;;;;;;;;5061785;28;20048;-74
2023/02/23 09:16:20;;;;;;;135.20;69.87;;;;;;;;;;5059794;28;20036;-74
2023/02/23 09:18:46;;;;;;;144.67;71.83;;;;;;;;;;5051933;28;20093;-76
2023/02/23 09:21:21;;;;;;;147.03;73.33;;;;;;;;;;5058822;28;20401;-75
2023/02/23 09:23:50;;;;;;;142.30;70.63;;;;;;;;;;5061567;28;20361;-75
2023/02/23 09:26:19;;;;;;;143.80;74.63;;;;;;;;;;5076321;28;20547;-74
2023/02/23 09:28:45;;;;;;;145.60;72.47;;;;;;;;;;5049744;28;20028;-76
2023/02/23 09:31:13;;;;;;;140.87;72.47;;;;;;;;;;5052233;28;20049;-74
2023/02/23 09:33:40;;;;;;;141.80;71.63;;;;;;;;;;5073491;28;20040;-75
2023/02/23 09:36:11;;;;;;;138.17;71.83;;;;;;;;;;5057656;28;20032;-74
2023/02/23 09:38:37;;;;;;;134.17;65.53;;;;;;;;;;5057727;28;20024;-74
2023/02/23 09:41:05;;;;;;;136.07;67.90;;;;;;;;;;5046214;28;20044;-75
2023/02/23 09:43:35;;;;;;;124.20;64.43;;;;;;;;;;5072929;28;20132;-75
2023/02/23 09:46:08;;;;;;;132.13;67.50;;;;;;;;;;5061140;28;20093;-75
2023/02/23 09:48:34;;;;;;;118.72;63.15;;;;;;;;;;5052409;28;20116;-74
2023/02/23 09:51:00;;;;;;;127.90;64.73;;;;;;;;;;5069879;28;20025;-74
2023/02/23 09:53:28;;;;;;;117.73;63.40;;;;;;;;;;5045714;28;20020;-74
2023/02/23 09:55:54;;;;;;;124.50;61.60;;;;;;;;;;5054020;28;20106;-75
2023/02/23 09:58:22;;;;;;;116.93;62.97;;;;;;;;;;5058409;28;20031;-75
2023/02/23 10:00:57;;;;;;;117.10;58.57;;;;;;;;;;5057980;28;20116;-74
2023/02/23 10:03:49;;;;;;;102.33;56.17;;;;;;;;;;5052181;28;20025;-74
2023/02/23 10:06:16;;;;;;;97.43;55.60;;;;;;;;;;4971642;28;20489;-74
2023/02/23 10:09:00;;;;;;;94.27;53.60;;;;;;;;;;5058397;28;20101;-75
2023/02/23 10:11:34;;;;;;;78.77;47.90;;;;;;;;;;5059705;28;20036;-75
2023/02/23 10:14:15;;;;;;;82.63;50.73;;;;;;;;;;5058383;28;20013;-75
2023/02/23 10:16:53;;;;;;;87.17;52.73;;;;;;;;;;5060618;28;20100;-75
2023/02/23 10:19:28;;;;;;;83.80;50.83;;;;;;;;;;5042869;28;20067;-75
2023/02/23 10:21:56;;;;;;;80.33;49.47;;;;;;;;;;5056950;28;20068;-75
2023/02/23 10:24:37;;;;;;;89.90;52.60;;;;;;;;;;5040457;28;20093;-75
2023/02/23 10:27:09;;;;;;;78.00;47.07;;;;;;;;;;5051749;28;20032;-76
2023/02/23 10:29:44;;;;;;;72.88;47.03;;;;;;;;;;5038091;28;20040;-75
2023/02/23 10:32:21;;;;;;;79.77;50.90;;;;;;;;;;5050186;28;20071;-75
2023/02/23 10:34:47;;;;;;;91.57;53.13;;;;;;;;;;5058490;28;20111;-75
2023/02/23 10:37:15;;;;;;;89.77;52.00;;;;;;;;;;5056735;28;20048;-75
2023/02/23 10:39:41;;;;;;;94.03;51.40;;;;;;;;;;5037352;28;20079;-75
2023/02/23 10:42:12;;;;;;;89.13;51.80;;;;;;;;;;5056344;28;20031;-75
2023/02/23 10:44:38;;;;;;;99.10;54.63;;;;;;;;;;5040156;28;20033;-75
2023/02/23 10:47:15;;;;;;;107.13;53.57;;;;;;;;;;5054799;28;20037;-75
2023/02/23 10:49:43;;;;;;;102.60;56.20;;;;;;;;;;5038197;28;20506;-75
2023/02/23 10:52:14;;;;;;;100.80;53.80;;;;;;;;;;5042040;28;20995;-75
2023/02/23 10:54:46;;;;;;;103.60;53.70;;;;;;;;;;5038876;28;20033;-75
2023/02/23 10:57:13;;;;;;;109.47;55.72;;;;;;;;;;5056028;28;20031;-75
2023/02/23 10:59:57;;;;;;;97.80;54.70;;;;;;;;;;5037361;28;20071;-75
2023/02/23 11:02:24;;;;;;;99.90;53.53;;;;;;;;;;5047827;28;20448;-75
2023/02/23 11:04:52;;;;;;;96.17;50.43;;;;;;;;;;5042728;28;20420;-75
2023/02/23 11:07:23;;;;;;;93.47;48.60;;;;;;;;;;5037949;28;20029;-75
2023/02/23 11:09:50;;;;;;;93.67;49.47;;;;;;;;;;5053485;28;20057;-75
2023/02/23 11:12:20;;;;;;;102.13;51.70;;;;;;;;;;5053912;28;20039;-75
2023/02/23 11:14:47;;;;;;;106.80;52.43;;;;;;;;;;5054285;28;20032;-74
2023/02/23 11:17:31;;;;;;;109.03;55.07;;;;;;;;;;5038508;28;20028;-75
2023/02/23 11:20:03;;;;;;;98.87;50.60;;;;;;;;;;5036684;28;20496;-74
2023/02/23 11:22:34;;;;;;;105.05;49.15;;;;;;;;;;5055014;28;20036;-75
2023/02/23 11:25:05;;;;;;;107.50;52.57;;;;;;;;;;5054531;28;20021;-74
2023/02/23 11:27:32;;;;;;;106.80;54.17;;;;;;;;;;5047510;28;20051;-75
2023/02/23 11:30:05;;;;;;;114.00;55.17;;;;;;;;;;5057834;28;20109;-75
2023/02/23 11:32:37;;;;;;;115.57;54.70;;;;;;;;;;5041384;28;20557;-75
2023/02/23 11:35:25;;;;;;;121.63;56.22;;;;;;;;;;5055673;28;20017;-75
2023/02/23 11:37:52;;;;;;;124.50;55.87;;;;;;;;;;5056275;28;20025;-75
2023/02/23 11:40:25;;;;;;;119.30;55.13;;;;;;;;;;5040284;28;20453;-75
2023/02/23 11:42:56;;;;;;;109.27;55.23;;;;;;;;;;5056484;28;20037;-74
2023/02/23 11:45:32;;;;;;;111.03;50.50;;;;;;;;;;5056953;28;20025;-75
2023/02/23 11:48:00;;;;;;;110.80;49.40;;;;;;;;;;5055168;28;20041;-75
2023/02/23 11:50:38;;;;;;;106.70;47.23;;;;;;;;;;5040147;28;20044;-74
2023/02/23 11:53:04;;;;;;;98.57;46.13;;;;;;;;;;5055899;28;20037;-75
2023/02/23 11:55:32;;;;;;;101.50;45.13;;;;;;;;;;5056034;28;20090;-74
2023/02/23 11:58:19;;;;;;;96.37;45.20;;;;;;;;;;5047337;28;20079;-75
2023/02/23 12:00:57;;;;;;;106.47;49.23;;;;;;;;;;5050848;28;20048;-74
2023/02/23 12:03:24;;;;;;;110.23;47.47;;;;;;;;;;5041531;28;20033;-76
2023/02/23 12:05:52;;;;;;;115.80;50.53;;;;;;;;;;5028302;28;20145;-76
2023/02/23 12:08:32;;;;;;;116.37;49.40;;;;;;;;;;5050069;28;20468;-75
2023/02/23 12:11:00;;;;;;;125.47;51.23;;;;;;;;;;5060580;28;20036;-76
2023/02/23 12:13:36;;;;;;;118.50;51.00;;;;;;;;;;5060208;28;20024;-75
2023/02/23 12:16:05;;;;;;;124.70;52.90;;;;;;;;;;5057498;28;20032;-75
2023/02/23 12:18:37;;;;;;;111.23;50.87;;;;;;;;;;5059676;28;20029;-75
2023/02/23 12:21:32;;;;;;;117.18;48.42;;;;;;;;;;5059869;28;20040;-75
2023/02/23 12:24:07;;;;;;;113.73;49.03;;;;;;;;;;5027486;28;20112;-75
2023/02/23 12:26:39;;;;;;;117.23;51.30;;;;;;;;;;5043177;28;20029;-75
2023/02/23 12:29:20;;;;;;;121.07;53.05;;;;;;;;;;5058518;28;20032;-75
2023/02/23 12:31:49;;;;;;;114.63;48.00;;;;;;;;;;5059670;28;20031;-75
2023/02/23 12:34:28;;;;;;;122.20;51.03;;;;;;;;;;5040675;28;20029;-74
2023/02/23 12:37:06;;;;;;;115.33;48.53;;;;;;;;;;5061699;28;20036;-75
2023/02/23 12:39:35;;;;;;;124.70;50.40;;;;;;;;;;5059898;28;20037;-75
2023/02/23 12:42:01;;;;;;;133.10;54.27;;;;;;;;;;5045763;28;20052;-75
2023/02/23 12:44:52;;;;;;;126.47;52.47;;;;;;;;;;5050241;28;20028;-74
2023/02/23 12:47:57;;;;;;;129.00;52.73;;;;;;;;;;5045165;28;20028;-74
2023/02/23 12:50:23;;;;;;;114.83;49.67;;;;;;;;;;4951871;28;20159;-74
2023/02/23 12:53:00;;;;;;;109.53;48.47;;;;;;;;;;4968739;28;21796;-76
2023/02/23 12:55:37;;;;;;;103.63;46.80;;;;;;;;;;4967501;28;20053;-75
2023/02/23 12:58:14;;;;;;;112.93;47.80;;;;;;;;;;4965115;28;20082;-75
2023/02/23 13:00:43;;;;;;;101.03;43.97;;;;;;;;;;4967323;28;20035;-75
2023/02/23 13:03:26;;;;;;;96.30;44.80;;;;;;;;;;4965249;28;20046;-74
2023/02/23 13:06:03;;;;;;;101.13;44.77;;;;;;;;;;4952977;28;20035;-75
2023/02/23 13:08:39;;;;;;;93.40;43.90;;;;;;;;;;4967530;28;20043;-75
2023/02/23 13:11:05;;;;;;;89.97;41.37;;;;;;;;;;4963787;28;20035;-76
2023/02/23 13:13:47;;;;;;;99.40;43.60;;;;;;;;;;4953138;28;20035;-76
2023/02/23 13:16:21;;;;;;;91.65;41.35;;;;;;;;;;4966203;28;20038;-76
2023/02/23 13:18:56;;;;;;;90.93;42.30;;;;;;;;;;4967514;28;21791;-76
2023/02/23 13:21:29;;;;;;;98.93;42.80;;;;;;;;;;5017588;28;20060;-75
2023/02/23 13:23:58;;;;;;;100.63;44.17;;;;;;;;;;5060267;28;20024;-76
2023/02/23 13:26:38;;;;;;;91.90;40.83;;;;;;;;;;5058126;28;20441;-76
2023/02/23 13:29:22;;;;;;;95.57;40.43;;;;;;;;;;5041957;28;20040;-75
2023/02/23 13:31:51;;;;;;;92.00;41.00;;;;;;;;;;5039370;28;20473;-73
2023/02/23 13:34:26;;;;;;;92.57;38.63;;;;;;;;;;5056501;28;20028;-76
2023/02/23 13:36:52;;;;;;;89.80;38.60;;;;;;;;;;5057585;28;20375;-75
2023/02/23 13:39:27;;;;;;;86.63;39.50;;;;;;;;;;5041739;28;20377;-75
2023/02/23 13:41:53;;;;;;;84.00;37.10;;;;;;;;;;5050197;28;20425;-75
2023/02/23 13:44:38;;;;;;;84.87;36.30;;;;;;;;;;5044833;28;20052;-75
2023/02/23 13:47:19;;;;;;;81.03;37.43;;;;;;;;;;5038930;28;20479;-75
2023/02/23 13:49:59;;;;;;;83.93;36.47;;;;;;;;;;5057464;28;20068;-75
2023/02/23 13:52:28;;;;;;;74.77;34.60;;;;;;;;;;5056542;28;20362;-75
2023/02/23 13:55:05;;;;;;;64.63;32.23;;;;;;;;;;5059277;28;20218;-76
2023/02/23 13:57:34;;;;;;;76.97;33.37;;;;;;;;;;5048154;28;20033;-75
2023/02/23 14:00:00;;;;;;;63.73;30.57;;;;;;;;;;5044409;28;20028;-75
2023/02/23 14:02:34;;;;;;;74.57;32.10;;;;;;;;;;5057260;28;20063;-76
2023/02/23 14:05:05;;;;;;;67.97;31.87;;;;;;;;;;5056360;28;20056;-75
2023/02/23 14:07:32;;;;;;;66.93;32.40;;;;;;;;;;5044002;28;20036;-75
2023/02/23 14:10:10;;;;;;;57.30;30.10;;;;;;;;;;5056922;28;20037;-75
2023/02/23 14:12:40;;;;;;;59.70;29.93;;;;;;;;;;5055521;28;20120;-75
2023/02/23 14:15:28;;;;;;;49.73;27.03;;;;;;;;;;5056051;28;20030;-75
2023/02/23 14:18:01;;;;;;;51.87;27.17;;;;;;;;;;5057616;28;20067;-75
2023/02/23 14:20:39;;;;;;;49.57;26.63;;;;;;;;;;5055560;28;20120;-74
2023/02/23 14:23:28;;;;;;;47.83;24.70;;;;;;;;;;5037099;28;20033;-74
2023/02/23 14:26:29;;;;;;;44.53;22.63;;;;;;;;;;5057306;28;20067;-75
2023/02/23 14:29:13;;;;;;;44.47;25.00;;;;;;;;;;4984790;28;20042;-75
2023/02/23 14:31:55;;;;;;;47.63;24.80;;;;;;;;;;5047541;28;20098;-75
2023/02/23 14:34:21;;;;;;;41.50;22.47;;;;;;;;;;5056860;28;20064;-75
2023/02/23 14:36:48;;;;;;;43.87;23.17;;;;;;;;;;5054965;28;20284;-74
2023/02/23 14:39:22;;;;;;;36.67;21.37;;;;;;;;;;5056387;28;20125;-77
2023/02/23 14:41:55;;;;;;;41.40;22.77;;;;;;;;;;5041015;28;21194;-75
2023/02/23 14:44:34;;;;;;;42.17;22.00;;;;;;;;;;5056782;28;20043;-75
2023/02/23 14:47:00;;;;;;;41.03;21.70;;;;;;;;;;5043839;28;20021;-74
2023/02/23 14:49:28;;;;;;;39.90;21.93;;;;;;;;;;5072774;28;20099;-76
2023/02/23 14:51:58;;;;;;;40.77;20.90;;;;;;;;;;5068259;28;20028;-74
2023/02/23 14:54:31;;;;;;;43.77;23.17;;;;;;;;;;5046783;28;20134;-74
2023/02/23 14:57:03;;;;;;;47.63;23.37;;;;;;;;;;5047507;28;20028;-75
2023/02/23 14:59:36;;;;;;;43.90;21.43;;;;;;;;;;5044220;28;20108;-75
2023/02/23 15:02:07;;;;;;;41.90;22.80;;;;;;;;;;5047696;28;20032;-74
2023/02/23 15:04:37;;;;;;;47.60;24.00;;;;;;;;;;5052668;28;20064;-75
2023/02/23 15:07:03;;;;;;;44.00;24.30;;;;;;;;;;5070878;28;20009;-75
2023/02/23 15:09:37;;;;;;;53.43;24.53;;;;;;;;;;5047650;28;20032;-75
2023/02/23 15:12:10;;;;;;;56.37;26.50;;;;;;;;;;5053146;28;20021;-75
2023/02/23 15:14:41;;;;;;;47.63;24.00;;;;;;;;;;5067344;28;20032;-74
2023/02/23 15:17:10;;;;;;;47.97;25.10;;;;;;;;;;5071203;28;20021;-75
2023/02/23 15:19:38;;;;;;;52.63;26.03;;;;;;;;;;5055595;28;20028;-74
2023/02/23 15:22:05;;;;;;;47.83;24.70;;;;;;;;;;5045011;28;20029;-74
2023/02/23 15:24:41;;;;;;;50.67;24.47;;;;;;;;;;5049431;28;20028;-75
2023/02/23 15:27:22;;;;;;;47.17;24.73;;;;;;;;;;5044389;28;20024;-75
2023/02/23 15:29:51;;;;;;;51.93;25.20;;;;;;;;;;5044066;28;20039;-74
2023/02/23 15:32:23;;;;;;;47.90;24.43;;;;;;;;;;5051561;28;20036;-74
2023/02/23 15:34:50;;;;;;;56.95;26.58;;;;;;;;;;5068624;28;20108;-74
2023/02/23 15:37:39;;;;;;;51.13;26.23;;;;;;;;;;5051734;28;20028;-74
2023/02/23 15:40:16;;;;;;;54.33;27.97;;;;;;;;;;5041893;28;20040;-74